sensor_id;sensor_type;location;lat;lon;timestamp;P1;durP1;ratioP1;P2;durP2;ratioP2
9080;SDS011;13509;50.760;6.080;2023-03-01T00:01:10;12.30;;;8.57;;
9080;SDS011;13509;50.760;6.080;2023-03-01T00:03:39;14.13;;;9.20;;
9080;SDS011;13509;50.760;6.080;2023-03-01T00:06:07;13.00;;;8.30;;
9080;SDS011;13509;50.760;6.080;2023-03-01T00:08:35;13.77;;;7.67;;
9080;SDS011;13509;50.760;6.080;2023-03-01T00:11:04;11.63;;;7.33;;
9080;SDS011;13509;50.760;6.080;2023-03-01T00:13:34;12.23;;;8.10;;
9080;SDS011;13509;50.760;6.080;2023-03-01T00:16:03;10.63;;;8.13;;
9080;SDS011;13509;50.760;6.080;2023-03-01T00:18:31;15.20;;;8.93;;
9080;SDS011;13509;50.760;6.080;2023-03-01T00:21:00;11.13;;;8.50;;
9080;SDS011;13509;50.760;6.080;2023-03-01T00:23:28;12.57;;;8.77;;
9080;SDS011;13509;50.760;6.080;2023-03-01T00:25:57;17.13;;;7.97;;
9080;SDS011;13509;50.760;6.080;2023-03-01T00:28:25;12.70;;;8.43;;
9080;SDS011;13509;50.760;6.080;2023-03-01T00:30:54;12.77;;;7.53;;
9080;SDS011;13509;50.760;6.080;2023-03-01T00:33:23;10.33;;;7.27;;
9080;SDS011;13509;50.760;6.080;2023-03-01T00:35:51;11.57;;;7.90;;
9080;SDS011;13509;50.760;6.080;2023-03-01T00:38:19;12.87;;;8.00;;
9080;SDS011;13509;50.760;6.080;2023-03-01T00:40:47;12.87;;;8.07;;
9080;SDS011;13509;50.760;6.080;2023-03-01T00:43:15;14.10;;;9.10;;
9080;SDS011;13509;50.760;6.080;2023-03-01T00:45:43;16.50;;;8.80;;
9080;SDS011;13509;50.760;6.080;2023-03-01T00:48:13;11.40;;;8.37;;
9080;SDS011;13509;50.760;6.080;2023-03-01T00:50:41;10.70;;;7.97;;
9080;SDS011;13509;50.760;6.080;2023-03-01T00:53:09;13.33;;;8.20;;
9080;SDS011;13509;50.760;6.080;2023-03-01T00:55:38;14.00;;;8.17;;
9080;SDS011;13509;50.760;6.080;2023-03-01T00:58:06;11.20;;;7.87;;
9080;SDS011;13509;50.760;6.080;2023-03-01T01:00:34;11.80;;;8.03;;
9080;SDS011;13509;50.760;6.080;2023-03-01T01:03:02;13.47;;;8.00;;
9080;SDS011;13509;50.760;6.080;2023-03-01T01:05:33;11.47;;;7.60;;
9080;SDS011;13509;50.760;6.080;2023-03-01T01:08:01;13.37;;;9.00;;
9080;SDS011;13509;50.760;6.080;2023-03-01T01:10:30;12.10;;;8.07;;
9080;SDS011;13509;50.760;6.080;2023-03-01T01:12:58;13.47;;;7.90;;
9080;SDS011;13509;50.760;6.080;2023-03-01T01:15:26;14.97;;;8.07;;
9080;SDS011;13509;50.760;6.080;2023-03-01T01:17:54;11.63;;;7.67;;
9080;SDS011;13509;50.760;6.080;2023-03-01T01:20:22;12.50;;;8.03;;
9080;SDS011;13509;50.760;6.080;2023-03-01T01:22:52;13.23;;;7.43;;
9080;SDS011;13509;50.760;6.080;2023-03-01T01:25:20;10.93;;;7.93;;
9080;SDS011;13509;50.760;6.080;2023-03-01T01:27:51;10.10;;;7.70;;
9080;SDS011;13509;50.760;6.080;2023-03-01T01:30:19;12.00;;;8.33;;
9080;SDS011;13509;50.760;6.080;2023-03-01T01:32:47;14.33;;;7.90;;
9080;SDS011;13509;50.760;6.080;2023-03-01T01:35:15;16.60;;;8.20;;
9080;SDS011;13509;50.760;6.080;2023-03-01T01:37:43;16.47;;;8.57;;
9080;SDS011;13509;50.760;6.080;2023-03-01T01:40:13;11.57;;;8.47;;
9080;SDS011;13509;50.760;6.080;2023-03-01T01:42:41;11.93;;;8.23;;
9080;SDS011;13509;50.760;6.080;2023-03-01T01:45:27;11.80;;;7.70;;
9080;SDS011;13509;50.760;6.080;2023-03-01T01:47:56;14.33;;;7.90;;
9080;SDS011;13509;50.760;6.080;2023-03-01T01:50:26;14.20;;;7.70;;
9080;SDS011;13509;50.760;6.080;2023-03-01T01:53:05;13.73;;;8.37;;
9080;SDS011;13509;50.760;6.080;2023-03-01T01:55:36;13.07;;;8.47;;
9080;SDS011;13509;50.760;6.080;2023-03-01T01:58:05;14.90;;;8.20;;
9080;SDS011;13509;50.760;6.080;2023-03-01T02:00:34;16.73;;;8.97;;
9080;SDS011;13509;50.760;6.080;2023-03-01T02:03:06;12.63;;;7.77;;
9080;SDS011;13509;50.760;6.080;2023-03-01T02:05:37;14.20;;;8.60;;
9080;SDS011;13509;50.760;6.080;2023-03-01T02:08:06;14.43;;;8.77;;
9080;SDS011;13509;50.760;6.080;2023-03-01T02:10:37;13.53;;;8.53;;
9080;SDS011;13509;50.760;6.080;2023-03-01T02:13:06;16.17;;;8.43;;
9080;SDS011;13509;50.760;6.080;2023-03-01T02:15:35;13.03;;;8.80;;
9080;SDS011;13509;50.760;6.080;2023-03-01T02:18:04;12.90;;;8.43;;
9080;SDS011;13509;50.760;6.080;2023-03-01T02:20:33;14.83;;;8.43;;
9080;SDS011;13509;50.760;6.080;2023-03-01T02:23:02;12.77;;;8.27;;
9080;SDS011;13509;50.760;6.080;2023-03-01T02:25:35;12.77;;;8.43;;
9080;SDS011;13509;50.760;6.080;2023-03-01T02:28:05;13.17;;;8.27;;
9080;SDS011;13509;50.760;6.080;2023-03-01T02:30:37;14.77;;;8.07;;
9080;SDS011;13509;50.760;6.080;2023-03-01T02:33:26;13.87;;;8.57;;
9080;SDS011;13509;50.760;6.080;2023-03-01T02:35:54;14.13;;;9.13;;
9080;SDS011;13509;50.760;6.080;2023-03-01T02:38:22;14.17;;;8.50;;
9080;SDS011;13509;50.760;6.080;2023-03-01T02:40:51;16.13;;;8.37;;
9080;SDS011;13509;50.760;6.080;2023-03-01T02:43:19;12.57;;;8.43;;
9080;SDS011;13509;50.760;6.080;2023-03-01T02:45:50;16.77;;;8.60;;
9080;SDS011;13509;50.760;6.080;2023-03-01T02:48:19;14.87;;;9.27;;
9080;SDS011;13509;50.760;6.080;2023-03-01T02:50:58;15.80;;;8.60;;
9080;SDS011;13509;50.760;6.080;2023-03-01T02:53:32;15.03;;;8.53;;
9080;SDS011;13509;50.760;6.080;2023-03-01T02:56:03;15.10;;;8.43;;
9080;SDS011;13509;50.760;6.080;2023-03-01T02:58:31;14.57;;;8.57;;
9080;SDS011;13509;50.760;6.080;2023-03-01T03:01:08;18.10;;;8.63;;
9080;SDS011;13509;50.760;6.080;2023-03-01T03:03:36;14.67;;;8.80;;
9080;SDS011;13509;50.760;6.080;2023-03-01T03:06:04;15.63;;;9.50;;
9080;SDS011;13509;50.760;6.080;2023-03-01T03:08:32;14.83;;;9.93;;
9080;SDS011;13509;50.760;6.080;2023-03-01T03:11:01;15.00;;;9.00;;
9080;SDS011;13509;50.760;6.080;2023-03-01T03:13:29;16.87;;;9.20;;
9080;SDS011;13509;50.760;6.080;2023-03-01T03:15:58;15.20;;;8.80;;
9080;SDS011;13509;50.760;6.080;2023-03-01T03:18:27;12.47;;;8.97;;
9080;SDS011;13509;50.760;6.080;2023-03-01T03:20:56;14.23;;;9.40;;
9080;SDS011;13509;50.760;6.080;2023-03-01T03:23:24;11.87;;;8.50;;
9080;SDS011;13509;50.760;6.080;2023-03-01T03:25:53;14.53;;;8.97;;
9080;SDS011;13509;50.760;6.080;2023-03-01T03:28:21;15.23;;;8.93;;
9080;SDS011;13509;50.760;6.080;2023-03-01T03:30:49;15.53;;;8.57;;
9080;SDS011;13509;50.760;6.080;2023-03-01T03:33:18;14.03;;;8.23;;
9080;SDS011;13509;50.760;6.080;2023-03-01T03:35:48;18.80;;;10.03;;
9080;SDS011;13509;50.760;6.080;2023-03-01T03:38:17;15.77;;;9.17;;
9080;SDS011;13509;50.760;6.080;2023-03-01T03:40:49;14.63;;;8.20;;
9080;SDS011;13509;50.760;6.080;2023-03-01T03:43:18;13.90;;;8.83;;
9080;SDS011;13509;50.760;6.080;2023-03-01T03:45:46;16.60;;;9.43;;
9080;SDS011;13509;50.760;6.080;2023-03-01T03:48:15;14.73;;;8.77;;
9080;SDS011;13509;50.760;6.080;2023-03-01T03:50:48;15.93;;;8.57;;
9080;SDS011;13509;50.760;6.080;2023-03-01T03:53:17;12.63;;;8.30;;
9080;SDS011;13509;50.760;6.080;2023-03-01T03:55:45;14.50;;;8.63;;
9080;SDS011;13509;50.760;6.080;2023-03-01T03:58:15;14.37;;;8.63;;
9080;SDS011;13509;50.760;6.080;2023-03-01T04:00:47;12.60;;;8.77;;
9080;SDS011;13509;50.760;6.080;2023-03-01T04:03:16;17.27;;;9.13;;
9080;SDS011;13509;50.760;6.080;2023-03-01T04:05:44;17.13;;;8.87;;
9080;SDS011;13509;50.760;6.080;2023-03-01T04:08:14;14.53;;;8.83;;
9080;SDS011;13509;50.760;6.080;2023-03-01T04:10:43;14.00;;;9.23;;
9080;SDS011;13509;50.760;6.080;2023-03-01T04:13:12;13.47;;;9.03;;
9080;SDS011;13509;50.760;6.080;2023-03-01T04:15:41;16.13;;;9.27;;
9080;SDS011;13509;50.760;6.080;2023-03-01T04:18:10;14.70;;;8.50;;
9080;SDS011;13509;50.760;6.080;2023-03-01T04:20:40;17.60;;;9.57;;
9080;SDS011;13509;50.760;6.080;2023-03-01T04:23:09;15.20;;;8.57;;
9080;SDS011;13509;50.760;6.080;2023-03-01T04:25:41;16.03;;;9.50;;
9080;SDS011;13509;50.760;6.080;2023-03-01T04:28:09;14.63;;;9.33;;
9080;SDS011;13509;50.760;6.080;2023-03-01T04:30:38;12.57;;;8.47;;
9080;SDS011;13509;50.760;6.080;2023-03-01T04:33:08;15.97;;;9.70;;
9080;SDS011;13509;50.760;6.080;2023-03-01T04:35:36;14.20;;;8.83;;
9080;SDS011;13509;50.760;6.080;2023-03-01T04:38:06;17.77;;;8.90;;
9080;SDS011;13509;50.760;6.080;2023-03-01T04:40:35;14.73;;;8.83;;
9080;SDS011;13509;50.760;6.080;2023-03-01T04:43:04;14.63;;;9.37;;
9080;SDS011;13509;50.760;6.080;2023-03-01T04:45:32;14.43;;;9.70;;
9080;SDS011;13509;50.760;6.080;2023-03-01T04:48:01;13.57;;;8.90;;
9080;SDS011;13509;50.760;6.080;2023-03-01T04:50:30;15.10;;;8.90;;
9080;SDS011;13509;50.760;6.080;2023-03-01T04:52:58;15.57;;;9.77;;
9080;SDS011;13509;50.760;6.080;2023-03-01T04:55:26;16.80;;;9.27;;
9080;SDS011;13509;50.760;6.080;2023-03-01T04:57:55;17.63;;;9.90;;
9080;SDS011;13509;50.760;6.080;2023-03-01T05:00:25;15.43;;;9.03;;
9080;SDS011;13509;50.760;6.080;2023-03-01T05:02:53;16.90;;;9.30;;
9080;SDS011;13509;50.760;6.080;2023-03-01T05:05:24;16.63;;;9.33;;
9080;SDS011;13509;50.760;6.080;2023-03-01T05:07:54;16.23;;;9.77;;
9080;SDS011;13509;50.760;6.080;2023-03-01T05:10:22;14.97;;;8.90;;
9080;SDS011;13509;50.760;6.080;2023-03-01T05:12:51;16.87;;;9.77;;
9080;SDS011;13509;50.760;6.080;2023-03-01T05:15:19;14.63;;;8.83;;
9080;SDS011;13509;50.760;6.080;2023-03-01T05:17:53;14.93;;;9.33;;
9080;SDS011;13509;50.760;6.080;2023-03-01T05:20:21;17.00;;;9.37;;
9080;SDS011;13509;50.760;6.080;2023-03-01T05:22:50;15.27;;;9.97;;
9080;SDS011;13509;50.760;6.080;2023-03-01T05:25:18;14.03;;;8.80;;
9080;SDS011;13509;50.760;6.080;2023-03-01T05:27:47;14.77;;;9.57;;
9080;SDS011;13509;50.760;6.080;2023-03-01T05:30:16;14.10;;;9.40;;
9080;SDS011;13509;50.760;6.080;2023-03-01T05:32:45;13.87;;;8.67;;
9080;SDS011;13509;50.760;6.080;2023-03-01T05:35:16;19.57;;;9.63;;
9080;SDS011;13509;50.760;6.080;2023-03-01T05:37:45;17.97;;;9.77;;
9080;SDS011;13509;50.760;6.080;2023-03-01T05:40:14;18.17;;;9.73;;
9080;SDS011;13509;50.760;6.080;2023-03-01T05:42:43;13.60;;;9.23;;
9080;SDS011;13509;50.760;6.080;2023-03-01T05:45:12;18.60;;;10.27;;
9080;SDS011;13509;50.760;6.080;2023-03-01T05:47:41;15.27;;;9.70;;
9080;SDS011;13509;50.760;6.080;2023-03-01T05:50:11;17.90;;;9.53;;
9080;SDS011;13509;50.760;6.080;2023-03-01T05:52:41;20.00;;;9.93;;
9080;SDS011;13509;50.760;6.080;2023-03-01T05:55:09;17.53;;;10.47;;
9080;SDS011;13509;50.760;6.080;2023-03-01T05:57:38;19.23;;;9.93;;
9080;SDS011;13509;50.760;6.080;2023-03-01T06:00:06;13.87;;;9.53;;
9080;SDS011;13509;50.760;6.080;2023-03-01T06:02:35;17.37;;;9.53;;
9080;SDS011;13509;50.760;6.080;2023-03-01T06:05:04;17.83;;;10.27;;
9080;SDS011;13509;50.760;6.080;2023-03-01T06:07:33;15.20;;;9.80;;
9080;SDS011;13509;50.760;6.080;2023-03-01T06:10:02;15.50;;;9.43;;
9080;SDS011;13509;50.760;6.080;2023-03-01T06:12:31;16.40;;;9.57;;
9080;SDS011;13509;50.760;6.080;2023-03-01T06:14:59;17.23;;;10.07;;
9080;SDS011;13509;50.760;6.080;2023-03-01T06:17:29;15.77;;;10.07;;
9080;SDS011;13509;50.760;6.080;2023-03-01T06:19:58;17.60;;;9.90;;
9080;SDS011;13509;50.760;6.080;2023-03-01T06:22:27;23.87;;;10.77;;
9080;SDS011;13509;50.760;6.080;2023-03-01T06:24:55;14.83;;;9.90;;
9080;SDS011;13509;50.760;6.080;2023-03-01T06:27:24;15.13;;;9.97;;
9080;SDS011;13509;50.760;6.080;2023-03-01T06:29:53;17.80;;;10.37;;
9080;SDS011;13509;50.760;6.080;2023-03-01T06:32:21;16.97;;;9.73;;
9080;SDS011;13509;50.760;6.080;2023-03-01T06:34:49;21.30;;;10.80;;
9080;SDS011;13509;50.760;6.080;2023-03-01T06:37:18;17.17;;;10.67;;
9080;SDS011;13509;50.760;6.080;2023-03-01T06:39:46;19.17;;;10.57;;
9080;SDS011;13509;50.760;6.080;2023-03-01T06:42:14;19.73;;;10.03;;
9080;SDS011;13509;50.760;6.080;2023-03-01T06:44:44;17.40;;;10.80;;
9080;SDS011;13509;50.760;6.080;2023-03-01T06:47:13;17.50;;;10.90;;
9080;SDS011;13509;50.760;6.080;2023-03-01T06:49:41;15.60;;;10.63;;
9080;SDS011;13509;50.760;6.080;2023-03-01T06:52:09;16.67;;;10.53;;
9080;SDS011;13509;50.760;6.080;2023-03-01T06:54:37;20.47;;;10.87;;
9080;SDS011;13509;50.760;6.080;2023-03-01T06:57:05;17.83;;;11.00;;
9080;SDS011;13509;50.760;6.080;2023-03-01T06:59:33;20.47;;;11.17;;
9080;SDS011;13509;50.760;6.080;2023-03-01T07:02:03;17.40;;;11.63;;
9080;SDS011;13509;50.760;6.080;2023-03-01T07:04:31;17.77;;;10.73;;
9080;SDS011;13509;50.760;6.080;2023-03-01T07:06:59;21.33;;;11.80;;
9080;SDS011;13509;50.760;6.080;2023-03-01T07:09:28;21.43;;;10.67;;
9080;SDS011;13509;50.760;6.080;2023-03-01T07:11:56;14.93;;;9.80;;
9080;SDS011;13509;50.760;6.080;2023-03-01T07:14:24;21.20;;;10.70;;
9080;SDS011;13509;50.760;6.080;2023-03-01T07:16:53;17.23;;;10.40;;
9080;SDS011;13509;50.760;6.080;2023-03-01T07:19:22;14.60;;;9.57;;
9080;SDS011;13509;50.760;6.080;2023-03-01T07:21:50;17.17;;;9.40;;
9080;SDS011;13509;50.760;6.080;2023-03-01T07:24:19;15.73;;;9.07;;
9080;SDS011;13509;50.760;6.080;2023-03-01T07:26:48;14.53;;;9.17;;
9080;SDS011;13509;50.760;6.080;2023-03-01T07:29:16;16.83;;;9.40;;
9080;SDS011;13509;50.760;6.080;2023-03-01T07:31:44;17.50;;;9.17;;
9080;SDS011;13509;50.760;6.080;2023-03-01T07:34:12;17.33;;;9.90;;
9080;SDS011;13509;50.760;6.080;2023-03-01T07:36:42;16.47;;;9.33;;
9080;SDS011;13509;50.760;6.080;2023-03-01T07:39:11;16.10;;;9.27;;
9080;SDS011;13509;50.760;6.080;2023-03-01T07:41:39;17.60;;;9.20;;
9080;SDS011;13509;50.760;6.080;2023-03-01T07:44:07;16.17;;;9.27;;
9080;SDS011;13509;50.760;6.080;2023-03-01T07:46:36;16.80;;;9.27;;
9080;SDS011;13509;50.760;6.080;2023-03-01T07:49:04;15.10;;;9.33;;
9080;SDS011;13509;50.760;6.080;2023-03-01T07:51:35;12.03;;;8.50;;
9080;SDS011;13509;50.760;6.080;2023-03-01T07:54:05;13.33;;;9.33;;
9080;SDS011;13509;50.760;6.080;2023-03-01T07:56:33;15.57;;;9.40;;
9080;SDS011;13509;50.760;6.080;2023-03-01T07:59:01;15.23;;;9.00;;
9080;SDS011;13509;50.760;6.080;2023-03-01T08:01:30;19.37;;;9.00;;
9080;SDS011;13509;50.760;6.080;2023-03-01T08:03:58;13.20;;;9.57;;
9080;SDS011;13509;50.760;6.080;2023-03-01T08:06:26;14.73;;;9.20;;
9080;SDS011;13509;50.760;6.080;2023-03-01T08:08:55;14.37;;;9.27;;
9080;SDS011;13509;50.760;6.080;2023-03-01T08:11:25;13.90;;;9.00;;
9080;SDS011;13509;50.760;6.080;2023-03-01T08:13:55;16.07;;;9.10;;
9080;SDS011;13509;50.760;6.080;2023-03-01T08:16:23;16.27;;;9.03;;
9080;SDS011;13509;50.760;6.080;2023-03-01T08:18:52;12.87;;;8.73;;
9080;SDS011;13509;50.760;6.080;2023-03-01T08:21:22;12.50;;;8.40;;
9080;SDS011;13509;50.760;6.080;2023-03-01T08:23:50;12.20;;;9.03;;
9080;SDS011;13509;50.760;6.080;2023-03-01T08:26:20;16.20;;;9.20;;
9080;SDS011;13509;50.760;6.080;2023-03-01T08:28:50;13.47;;;9.20;;
9080;SDS011;13509;50.760;6.080;2023-03-01T08:31:19;15.13;;;9.60;;
9080;SDS011;13509;50.760;6.080;2023-03-01T08:33:48;13.57;;;9.23;;
9080;SDS011;13509;50.760;6.080;2023-03-01T08:36:21;16.13;;;9.67;;
9080;SDS011;13509;50.760;6.080;2023-03-01T08:38:50;14.13;;;9.13;;
9080;SDS011;13509;50.760;6.080;2023-03-01T08:41:18;14.50;;;9.53;;
9080;SDS011;13509;50.760;6.080;2023-03-01T08:43:46;14.73;;;9.57;;
9080;SDS011;13509;50.760;6.080;2023-03-01T08:46:16;16.63;;;10.33;;
9080;SDS011;13509;50.760;6.080;2023-03-01T08:48:44;17.47;;;9.00;;
9080;SDS011;13509;50.760;6.080;2023-03-01T08:51:14;18.07;;;9.23;;
9080;SDS011;13509;50.760;6.080;2023-03-01T08:53:43;15.33;;;9.10;;
9080;SDS011;13509;50.760;6.080;2023-03-01T08:56:11;13.57;;;9.67;;
9080;SDS011;13509;50.760;6.080;2023-03-01T08:58:40;14.47;;;10.13;;
9080;SDS011;13509;50.760;6.080;2023-03-01T09:01:11;13.20;;;9.73;;
9080;SDS011;13509;50.760;6.080;2023-03-01T09:03:42;14.90;;;9.37;;
9080;SDS011;13509;50.760;6.080;2023-03-01T09:06:10;14.83;;;8.90;;
9080;SDS011;13509;50.760;6.080;2023-03-01T09:08:40;14.37;;;9.50;;
9080;SDS011;13509;50.760;6.080;2023-03-01T09:11:10;15.23;;;10.73;;
9080;SDS011;13509;50.760;6.080;2023-03-01T09:13:39;20.57;;;10.47;;
9080;SDS011;13509;50.760;6.080;2023-03-01T09:16:10;18.67;;;9.93;;
9080;SDS011;13509;50.760;6.080;2023-03-01T09:18:39;15.10;;;9.93;;
9080;SDS011;13509;50.760;6.080;2023-03-01T09:21:09;16.73;;;10.30;;
9080;SDS011;13509;50.760;6.080;2023-03-01T09:23:38;13.20;;;9.87;;
9080;SDS011;13509;50.760;6.080;2023-03-01T09:26:06;14.27;;;10.43;;
9080;SDS011;13509;50.760;6.080;2023-03-01T09:28:35;16.20;;;10.00;;
9080;SDS011;13509;50.760;6.080;2023-03-01T09:31:04;13.17;;;9.90;;
9080;SDS011;13509;50.760;6.080;2023-03-01T09:33:32;15.30;;;10.23;;
9080;SDS011;13509;50.760;6.080;2023-03-01T09:36:01;13.67;;;10.20;;
9080;SDS011;13509;50.760;6.080;2023-03-01T09:38:32;16.37;;;9.30;;
9080;SDS011;13509;50.760;6.080;2023-03-01T09:41:00;16.90;;;10.47;;
9080;SDS011;13509;50.760;6.080;2023-03-01T09:43:29;15.43;;;9.93;;
9080;SDS011;13509;50.760;6.080;2023-03-01T09:45:59;15.37;;;9.73;;
9080;SDS011;13509;50.760;6.080;2023-03-01T09:48:32;15.07;;;10.73;;
9080;SDS011;13509;50.760;6.080;2023-03-01T09:51:05;13.77;;;9.80;;
9080;SDS011;13509;50.760;6.080;2023-03-01T09:53:36;17.73;;;10.60;;
9080;SDS011;13509;50.760;6.080;2023-03-01T09:56:05;16.37;;;10.30;;
9080;SDS011;13509;50.760;6.080;2023-03-01T09:58:40;15.47;;;10.00;;
9080;SDS011;13509;50.760;6.080;2023-03-01T10:01:10;15.10;;;10.27;;
9080;SDS011;13509;50.760;6.080;2023-03-01T10:03:49;16.47;;;9.73;;
9080;SDS011;13509;50.760;6.080;2023-03-01T10:06:21;15.30;;;10.67;;
9080;SDS011;13509;50.760;6.080;2023-03-01T10:09:02;15.40;;;11.00;;
9080;SDS011;13509;50.760;6.080;2023-03-01T10:11:32;16.17;;;10.50;;
9080;SDS011;13509;50.760;6.080;2023-03-01T10:14:06;14.37;;;10.43;;
9080;SDS011;13509;50.760;6.080;2023-03-01T10:16:38;17.27;;;10.27;;
9080;SDS011;13509;50.760;6.080;2023-03-01T10:19:09;17.60;;;10.70;;
9080;SDS011;13509;50.760;6.080;2023-03-01T10:21:40;16.20;;;10.53;;
9080;SDS011;13509;50.760;6.080;2023-03-01T10:24:12;17.30;;;10.20;;
9080;SDS011;13509;50.760;6.080;2023-03-01T10:26:48;17.07;;;10.10;;
9080;SDS011;13509;50.760;6.080;2023-03-01T10:29:18;18.70;;;10.87;;
9080;SDS011;13509;50.760;6.080;2023-03-01T10:31:48;18.40;;;10.47;;
9080;SDS011;13509;50.760;6.080;2023-03-01T10:34:17;16.77;;;10.83;;
9080;SDS011;13509;50.760;6.080;2023-03-01T10:36:47;22.33;;;10.57;;
9080;SDS011;13509;50.760;6.080;2023-03-01T10:39:18;18.13;;;10.63;;
9080;SDS011;13509;50.760;6.080;2023-03-01T10:41:57;17.20;;;10.73;;
9080;SDS011;13509;50.760;6.080;2023-03-01T10:44:42;17.80;;;10.43;;
9080;SDS011;13509;50.760;6.080;2023-03-01T10:47:15;17.77;;;10.70;;
9080;SDS011;13509;50.760;6.080;2023-03-01T10:49:56;19.83;;;11.23;;
9080;SDS011;13509;50.760;6.080;2023-03-01T10:52:26;19.07;;;10.87;;
9080;SDS011;13509;50.760;6.080;2023-03-01T10:54:57;19.47;;;10.83;;
9080;SDS011;13509;50.760;6.080;2023-03-01T10:57:32;20.93;;;11.47;;
9080;SDS011;13509;50.760;6.080;2023-03-01T11:00:16;16.13;;;10.03;;
9080;SDS011;13509;50.760;6.080;2023-03-01T11:02:47;18.83;;;10.47;;
9080;SDS011;13509;50.760;6.080;2023-03-01T11:05:18;18.73;;;11.63;;
9080;SDS011;13509;50.760;6.080;2023-03-01T11:07:47;21.13;;;11.00;;
9080;SDS011;13509;50.760;6.080;2023-03-01T11:10:18;17.43;;;10.67;;
9080;SDS011;13509;50.760;6.080;2023-03-01T11:12:46;19.47;;;11.30;;
9080;SDS011;13509;50.760;6.080;2023-03-01T11:15:22;21.57;;;11.07;;
9080;SDS011;13509;50.760;6.080;2023-03-01T11:17:51;18.50;;;10.77;;
9080;SDS011;13509;50.760;6.080;2023-03-01T11:20:35;18.70;;;9.93;;
9080;SDS011;13509;50.760;6.080;2023-03-01T11:23:04;15.83;;;10.30;;
9080;SDS011;13509;50.760;6.080;2023-03-01T11:25:35;14.97;;;9.50;;
9080;SDS011;13509;50.760;6.080;2023-03-01T11:28:05;17.23;;;10.17;;
9080;SDS011;13509;50.760;6.080;2023-03-01T11:30:37;16.17;;;9.90;;
9080;SDS011;13509;50.760;6.080;2023-03-01T11:33:11;21.00;;;10.23;;
9080;SDS011;13509;50.760;6.080;2023-03-01T11:35:41;16.60;;;10.33;;
9080;SDS011;13509;50.760;6.080;2023-03-01T11:38:15;16.20;;;10.00;;
9080;SDS011;13509;50.760;6.080;2023-03-01T11:40:46;19.77;;;10.30;;
9080;SDS011;13509;50.760;6.080;2023-03-01T11:43:22;17.10;;;10.77;;
9080;SDS011;13509;50.760;6.080;2023-03-01T11:45:55;17.30;;;9.53;;
9080;SDS011;13509;50.760;6.080;2023-03-01T11:48:29;15.43;;;10.67;;
9080;SDS011;13509;50.760;6.080;2023-03-01T11:51:15;17.77;;;10.67;;
9080;SDS011;13509;50.760;6.080;2023-03-01T11:56:31;16.10;;;10.50;;
9080;SDS011;13509;50.760;6.080;2023-03-01T11:59:13;17.97;;;10.47;;
9080;SDS011;13509;50.760;6.080;2023-03-01T12:01:51;17.33;;;11.03;;
9080;SDS011;13509;50.760;6.080;2023-03-01T12:07:10;18.00;;;11.20;;
9080;SDS011;13509;50.760;6.080;2023-03-01T12:09:46;15.80;;;10.03;;
9080;SDS011;13509;50.760;6.080;2023-03-01T12:12:26;16.77;;;9.90;;
9080;SDS011;13509;50.760;6.080;2023-03-01T12:14:59;14.10;;;9.73;;
9080;SDS011;13509;50.760;6.080;2023-03-01T12:17:31;19.87;;;10.50;;
9080;SDS011;13509;50.760;6.080;2023-03-01T12:20:24;20.70;;;9.87;;
9080;SDS011;13509;50.760;6.080;2023-03-01T12:23:02;16.30;;;9.60;;
9080;SDS011;13509;50.760;6.080;2023-03-01T12:25:46;17.17;;;10.27;;
9080;SDS011;13509;50.760;6.080;2023-03-01T12:28:23;15.40;;;10.10;;
9080;SDS011;13509;50.760;6.080;2023-03-01T12:31:00;18.77;;;10.60;;
9080;SDS011;13509;50.760;6.080;2023-03-01T12:33:33;16.03;;;10.43;;
9080;SDS011;13509;50.760;6.080;2023-03-01T12:36:11;19.93;;;11.50;;
9080;SDS011;13509;50.760;6.080;2023-03-01T12:38:42;17.40;;;11.30;;
9080;SDS011;13509;50.760;6.080;2023-03-01T12:41:25;17.97;;;11.57;;
9080;SDS011;13509;50.760;6.080;2023-03-01T12:44:01;19.20;;;11.50;;
9080;SDS011;13509;50.760;6.080;2023-03-01T12:46:35;20.03;;;11.53;;
9080;SDS011;13509;50.760;6.080;2023-03-01T12:49:08;19.13;;;11.93;;
9080;SDS011;13509;50.760;6.080;2023-03-01T12:51:37;22.17;;;11.90;;
9080;SDS011;13509;50.760;6.080;2023-03-01T12:54:07;19.77;;;11.17;;
9080;SDS011;13509;50.760;6.080;2023-03-01T12:56:39;17.97;;;11.03;;
9080;SDS011;13509;50.760;6.080;2023-03-01T12:59:11;21.77;;;12.17;;
9080;SDS011;13509;50.760;6.080;2023-03-01T13:01:42;16.93;;;11.10;;
9080;SDS011;13509;50.760;6.080;2023-03-01T13:04:15;21.70;;;11.43;;
9080;SDS011;13509;50.760;6.080;2023-03-01T13:06:47;16.77;;;11.30;;
9080;SDS011;13509;50.760;6.080;2023-03-01T13:09:21;15.70;;;10.03;;
9080;SDS011;13509;50.760;6.080;2023-03-01T13:11:52;23.17;;;11.27;;
9080;SDS011;13509;50.760;6.080;2023-03-01T13:14:37;20.87;;;10.93;;
9080;SDS011;13509;50.760;6.080;2023-03-01T13:17:31;16.77;;;10.50;;
9080;SDS011;13509;50.760;6.080;2023-03-01T13:19:59;16.03;;;10.47;;
9080;SDS011;13509;50.760;6.080;2023-03-01T13:22:30;20.43;;;10.50;;
9080;SDS011;13509;50.760;6.080;2023-03-01T13:25:12;15.97;;;10.13;;
9080;SDS011;13509;50.760;6.080;2023-03-01T13:27:40;18.80;;;11.17;;
9080;SDS011;13509;50.760;6.080;2023-03-01T13:32:59;16.07;;;10.03;;
9080;SDS011;13509;50.760;6.080;2023-03-01T13:35:47;17.13;;;10.80;;
9080;SDS011;13509;50.760;6.080;2023-03-01T13:41:03;17.90;;;11.20;;
9080;SDS011;13509;50.760;6.080;2023-03-01T13:43:33;15.17;;;10.10;;
9080;SDS011;13509;50.760;6.080;2023-03-01T13:46:07;16.37;;;10.07;;
9080;SDS011;13509;50.760;6.080;2023-03-01T13:48:37;17.93;;;10.33;;
9080;SDS011;13509;50.760;6.080;2023-03-01T13:51:08;16.10;;;10.43;;
9080;SDS011;13509;50.760;6.080;2023-03-01T13:53:38;20.53;;;10.47;;
9080;SDS011;13509;50.760;6.080;2023-03-01T13:56:08;17.70;;;10.07;;
9080;SDS011;13509;50.760;6.080;2023-03-01T13:58:47;16.33;;;10.30;;
9080;SDS011;13509;50.760;6.080;2023-03-01T14:01:23;13.57;;;9.13;;
9080;SDS011;13509;50.760;6.080;2023-03-01T14:03:52;14.47;;;9.47;;
9080;SDS011;13509;50.760;6.080;2023-03-01T14:06:22;13.67;;;9.23;;
9080;SDS011;13509;50.760;6.080;2023-03-01T14:08:51;15.40;;;9.17;;
9080;SDS011;13509;50.760;6.080;2023-03-01T14:11:22;16.83;;;9.40;;
9080;SDS011;13509;50.760;6.080;2023-03-01T14:14:03;13.07;;;8.80;;
9080;SDS011;13509;50.760;6.080;2023-03-01T14:16:35;13.80;;;8.60;;
9080;SDS011;13509;50.760;6.080;2023-03-01T14:19:14;13.63;;;8.73;;
9080;SDS011;13509;50.760;6.080;2023-03-01T14:21:59;16.03;;;9.53;;
9080;SDS011;13509;50.760;6.080;2023-03-01T14:24:30;20.47;;;8.83;;
9080;SDS011;13509;50.760;6.080;2023-03-01T14:27:00;12.80;;;9.17;;
9080;SDS011;13509;50.760;6.080;2023-03-01T14:29:33;16.03;;;9.53;;
9080;SDS011;13509;50.760;6.080;2023-03-01T14:32:08;13.20;;;8.57;;
9080;SDS011;13509;50.760;6.080;2023-03-01T14:34:38;14.87;;;8.83;;
9080;SDS011;13509;50.760;6.080;2023-03-01T14:37:12;14.67;;;8.47;;
9080;SDS011;13509;50.760;6.080;2023-03-01T14:39:45;17.30;;;9.47;;
9080;SDS011;13509;50.760;6.080;2023-03-01T14:42:14;14.87;;;9.50;;
9080;SDS011;13509;50.760;6.080;2023-03-01T14:44:43;14.47;;;9.40;;
9080;SDS011;13509;50.760;6.080;2023-03-01T14:47:11;13.07;;;8.83;;
9080;SDS011;13509;50.760;6.080;2023-03-01T14:49:40;16.00;;;9.80;;
9080;SDS011;13509;50.760;6.080;2023-03-01T14:52:16;14.80;;;9.07;;
9080;SDS011;13509;50.760;6.080;2023-03-01T14:54:46;14.90;;;9.57;;
9080;SDS011;13509;50.760;6.080;2023-03-01T14:57:16;13.97;;;9.57;;
9080;SDS011;13509;50.760;6.080;2023-03-01T14:59:44;13.53;;;9.13;;
9080;SDS011;13509;50.760;6.080;2023-03-01T15:02:15;16.90;;;9.10;;
9080;SDS011;13509;50.760;6.080;2023-03-01T15:04:45;14.53;;;8.60;;
9080;SDS011;13509;50.760;6.080;2023-03-01T15:07:15;14.50;;;8.93;;
9080;SDS011;13509;50.760;6.080;2023-03-01T15:09:44;16.23;;;9.10;;
9080;SDS011;13509;50.760;6.080;2023-03-01T15:12:33;15.53;;;9.20;;
9080;SDS011;13509;50.760;6.080;2023-03-01T15:17:49;16.13;;;8.80;;